sensor_id;sensor_type;location;lat;lon;timestamp;P1;durP1;ratioP1;P2;durP2;ratioP2
64615;SDS011;51027;42.162;24.754;2023-04-19T00:01:47;11.55;;;4.03;;
64615;SDS011;51027;42.162;24.754;2023-04-19T00:04:13;11.48;;;3.70;;
64615;SDS011;51027;42.162;24.754;2023-04-19T00:06:39;9.70;;;3.58;;
64615;SDS011;51027;42.162;24.754;2023-04-19T00:09:06;10.38;;;3.63;;
64615;SDS011;51027;42.162;24.754;2023-04-19T00:11:32;12.45;;;3.80;;
64615;SDS011;51027;42.162;24.754;2023-04-19T00:13:57;12.77;;;3.95;;
64615;SDS011;51027;42.162;24.754;2023-04-19T00:16:23;10.10;;;3.40;;
64615;SDS011;51027;42.162;24.754;2023-04-19T00:18:48;13.65;;;4.20;;
64615;SDS011;51027;42.162;24.754;2023-04-19T00:21:13;12.68;;;3.75;;
64615;SDS011;51027;42.162;24.754;2023-04-19T00:23:39;12.25;;;3.65;;
64615;SDS011;51027;42.162;24.754;2023-04-19T00:26:04;12.65;;;3.85;;
64615;SDS011;51027;42.162;24.754;2023-04-19T00:28:30;14.82;;;3.88;;
64615;SDS011;51027;42.162;24.754;2023-04-19T00:30:55;13.10;;;4.18;;
64615;SDS011;51027;42.162;24.754;2023-04-19T00:33:21;13.55;;;4.40;;
64615;SDS011;51027;42.162;24.754;2023-04-19T00:35:46;14.70;;;4.70;;
64615;SDS011;51027;42.162;24.754;2023-04-19T00:38:11;14.35;;;4.95;;
64615;SDS011;51027;42.162;24.754;2023-04-19T00:40:37;14.15;;;4.25;;
64615;SDS011;51027;42.162;24.754;2023-04-19T00:43:02;13.05;;;4.43;;
64615;SDS011;51027;42.162;24.754;2023-04-19T00:45:28;12.48;;;4.20;;
64615;SDS011;51027;42.162;24.754;2023-04-19T00:47:54;13.73;;;4.28;;
64615;SDS011;51027;42.162;24.754;2023-04-19T00:50:20;13.57;;;4.50;;
64615;SDS011;51027;42.162;24.754;2023-04-19T00:52:45;15.30;;;5.15;;
64615;SDS011;51027;42.162;24.754;2023-04-19T00:55:11;13.52;;;4.32;;
64615;SDS011;51027;42.162;24.754;2023-04-19T00:57:37;14.02;;;4.32;;
64615;SDS011;51027;42.162;24.754;2023-04-19T01:00:03;16.35;;;5.20;;
64615;SDS011;51027;42.162;24.754;2023-04-19T01:02:33;15.32;;;4.68;;
64615;SDS011;51027;42.162;24.754;2023-04-19T01:04:59;13.93;;;5.07;;
64615;SDS011;51027;42.162;24.754;2023-04-19T01:07:25;14.98;;;4.88;;
64615;SDS011;51027;42.162;24.754;2023-04-19T01:09:51;15.65;;;4.85;;
64615;SDS011;51027;42.162;24.754;2023-04-19T01:12:16;14.27;;;4.57;;
64615;SDS011;51027;42.162;24.754;2023-04-19T01:14:42;15.35;;;5.35;;
64615;SDS011;51027;42.162;24.754;2023-04-19T01:17:08;13.98;;;4.78;;
64615;SDS011;51027;42.162;24.754;2023-04-19T01:19:34;13.23;;;4.38;;
64615;SDS011;51027;42.162;24.754;2023-04-19T01:22:00;13.52;;;4.53;;
64615;SDS011;51027;42.162;24.754;2023-04-19T01:24:27;14.15;;;4.35;;
64615;SDS011;51027;42.162;24.754;2023-04-19T01:26:52;13.32;;;4.13;;
64615;SDS011;51027;42.162;24.754;2023-04-19T01:29:17;11.63;;;3.92;;
64615;SDS011;51027;42.162;24.754;2023-04-19T01:31:44;14.05;;;4.32;;
64615;SDS011;51027;42.162;24.754;2023-04-19T01:34:15;13.50;;;4.13;;
64615;SDS011;51027;42.162;24.754;2023-04-19T01:36:40;11.35;;;3.90;;
64615;SDS011;51027;42.162;24.754;2023-04-19T01:39:06;12.10;;;3.45;;
64615;SDS011;51027;42.162;24.754;2023-04-19T01:41:31;11.32;;;3.47;;
64615;SDS011;51027;42.162;24.754;2023-04-19T01:43:56;11.20;;;3.70;;
64615;SDS011;51027;42.162;24.754;2023-04-19T01:46:22;10.35;;;3.33;;
64615;SDS011;51027;42.162;24.754;2023-04-19T01:48:47;10.00;;;3.33;;
64615;SDS011;51027;42.162;24.754;2023-04-19T01:51:13;10.15;;;3.25;;
64615;SDS011;51027;42.162;24.754;2023-04-19T01:53:38;10.00;;;3.40;;
64615;SDS011;51027;42.162;24.754;2023-04-19T01:56:04;11.25;;;3.40;;
64615;SDS011;51027;42.162;24.754;2023-04-19T01:58:29;8.95;;;3.15;;
64615;SDS011;51027;42.162;24.754;2023-04-19T02:00:55;9.45;;;2.83;;
64615;SDS011;51027;42.162;24.754;2023-04-19T02:03:20;7.85;;;2.72;;
64615;SDS011;51027;42.162;24.754;2023-04-19T02:05:45;8.80;;;3.05;;
64615;SDS011;51027;42.162;24.754;2023-04-19T02:08:11;9.32;;;3.08;;
64615;SDS011;51027;42.162;24.754;2023-04-19T02:10:36;9.50;;;3.00;;
64615;SDS011;51027;42.162;24.754;2023-04-19T02:13:02;7.55;;;2.75;;
64615;SDS011;51027;42.162;24.754;2023-04-19T02:15:27;6.40;;;2.40;;
64615;SDS011;51027;42.162;24.754;2023-04-19T02:17:52;7.43;;;2.70;;
64615;SDS011;51027;42.162;24.754;2023-04-19T02:20:18;7.45;;;3.03;;
64615;SDS011;51027;42.162;24.754;2023-04-19T02:22:43;8.15;;;2.45;;
64615;SDS011;51027;42.162;24.754;2023-04-19T02:25:09;7.05;;;2.78;;
64615;SDS011;51027;42.162;24.754;2023-04-19T02:27:34;6.85;;;2.50;;
64615;SDS011;51027;42.162;24.754;2023-04-19T02:29:59;5.32;;;2.50;;
64615;SDS011;51027;42.162;24.754;2023-04-19T02:32:25;5.68;;;2.65;;
64615;SDS011;51027;42.162;24.754;2023-04-19T02:34:51;10.82;;;2.70;;
64615;SDS011;51027;42.162;24.754;2023-04-19T02:37:16;7.50;;;2.95;;
64615;SDS011;51027;42.162;24.754;2023-04-19T02:39:42;6.78;;;2.60;;
64615;SDS011;51027;42.162;24.754;2023-04-19T02:42:07;7.13;;;2.88;;
64615;SDS011;51027;42.162;24.754;2023-04-19T02:44:33;7.63;;;2.60;;
64615;SDS011;51027;42.162;24.754;2023-04-19T02:46:58;8.45;;;2.47;;
64615;SDS011;51027;42.162;24.754;2023-04-19T02:49:23;5.85;;;2.38;;
64615;SDS011;51027;42.162;24.754;2023-04-19T02:51:49;7.15;;;2.50;;
64615;SDS011;51027;42.162;24.754;2023-04-19T02:54:16;8.73;;;2.50;;
64615;SDS011;51027;42.162;24.754;2023-04-19T02:56:42;10.00;;;3.00;;
64615;SDS011;51027;42.162;24.754;2023-04-19T02:59:07;7.13;;;2.58;;
64615;SDS011;51027;42.162;24.754;2023-04-19T03:01:33;7.15;;;2.80;;
64615;SDS011;51027;42.162;24.754;2023-04-19T03:03:58;6.65;;;2.58;;
64615;SDS011;51027;42.162;24.754;2023-04-19T03:06:23;8.38;;;2.75;;
64615;SDS011;51027;42.162;24.754;2023-04-19T03:08:50;8.00;;;2.90;;
64615;SDS011;51027;42.162;24.754;2023-04-19T03:11:15;8.73;;;3.20;;
64615;SDS011;51027;42.162;24.754;2023-04-19T03:13:42;11.10;;;2.97;;
64615;SDS011;51027;42.162;24.754;2023-04-19T03:16:07;6.35;;;2.65;;
64615;SDS011;51027;42.162;24.754;2023-04-19T03:18:33;7.13;;;2.70;;
64615;SDS011;51027;42.162;24.754;2023-04-19T03:20:58;7.55;;;2.70;;
64615;SDS011;51027;42.162;24.754;2023-04-19T03:23:24;6.53;;;2.60;;
64615;SDS011;51027;42.162;24.754;2023-04-19T03:25:51;10.73;;;3.20;;
64615;SDS011;51027;42.162;24.754;2023-04-19T03:28:16;11.25;;;3.33;;
64615;SDS011;51027;42.162;24.754;2023-04-19T03:30:42;11.15;;;3.47;;
64615;SDS011;51027;42.162;24.754;2023-04-19T03:33:07;12.82;;;4.18;;
64615;SDS011;51027;42.162;24.754;2023-04-19T03:35:33;13.10;;;3.92;;
64615;SDS011;51027;42.162;24.754;2023-04-19T03:37:58;10.85;;;3.80;;
64615;SDS011;51027;42.162;24.754;2023-04-19T03:40:23;11.38;;;3.45;;
64615;SDS011;51027;42.162;24.754;2023-04-19T03:42:49;10.63;;;3.50;;
64615;SDS011;51027;42.162;24.754;2023-04-19T03:45:14;11.60;;;3.50;;
64615;SDS011;51027;42.162;24.754;2023-04-19T03:47:40;11.95;;;3.72;;
64615;SDS011;51027;42.162;24.754;2023-04-19T03:50:06;9.35;;;3.05;;
64615;SDS011;51027;42.162;24.754;2023-04-19T03:52:31;9.75;;;3.00;;
64615;SDS011;51027;42.162;24.754;2023-04-19T03:54:57;9.88;;;3.17;;
64615;SDS011;51027;42.162;24.754;2023-04-19T03:57:22;7.18;;;2.90;;
64615;SDS011;51027;42.162;24.754;2023-04-19T03:59:48;9.63;;;3.10;;
64615;SDS011;51027;42.162;24.754;2023-04-19T04:02:13;9.65;;;3.00;;
64615;SDS011;51027;42.162;24.754;2023-04-19T04:04:39;7.20;;;2.97;;
64615;SDS011;51027;42.162;24.754;2023-04-19T04:07:04;5.90;;;2.75;;
64615;SDS011;51027;42.162;24.754;2023-04-19T04:09:30;8.48;;;2.80;;
64615;SDS011;51027;42.162;24.754;2023-04-19T04:11:55;8.05;;;2.97;;
64615;SDS011;51027;42.162;24.754;2023-04-19T04:14:20;8.77;;;2.83;;
64615;SDS011;51027;42.162;24.754;2023-04-19T04:16:46;9.35;;;3.08;;
64615;SDS011;51027;42.162;24.754;2023-04-19T04:19:11;6.07;;;2.40;;
64615;SDS011;51027;42.162;24.754;2023-04-19T04:21:37;8.32;;;2.67;;
64615;SDS011;51027;42.162;24.754;2023-04-19T04:24:02;10.05;;;2.75;;
64615;SDS011;51027;42.162;24.754;2023-04-19T04:26:28;7.38;;;2.63;;
64615;SDS011;51027;42.162;24.754;2023-04-19T04:28:54;7.15;;;2.80;;
64615;SDS011;51027;42.162;24.754;2023-04-19T04:31:21;7.80;;;2.75;;
64615;SDS011;51027;42.162;24.754;2023-04-19T04:33:46;6.85;;;2.65;;
64615;SDS011;51027;42.162;24.754;2023-04-19T04:36:12;5.90;;;2.60;;
64615;SDS011;51027;42.162;24.754;2023-04-19T04:38:37;5.53;;;2.83;;
64615;SDS011;51027;42.162;24.754;2023-04-19T04:41:03;6.32;;;2.38;;
64615;SDS011;51027;42.162;24.754;2023-04-19T04:43:29;6.35;;;2.45;;
64615;SDS011;51027;42.162;24.754;2023-04-19T04:45:56;7.35;;;2.53;;
64615;SDS011;51027;42.162;24.754;2023-04-19T04:48:21;7.28;;;2.50;;
64615;SDS011;51027;42.162;24.754;2023-04-19T04:50:47;6.97;;;2.50;;
64615;SDS011;51027;42.162;24.754;2023-04-19T04:53:13;7.93;;;2.67;;
64615;SDS011;51027;42.162;24.754;2023-04-19T04:55:38;8.80;;;2.85;;
64615;SDS011;51027;42.162;24.754;2023-04-19T04:58:03;7.88;;;3.00;;
64615;SDS011;51027;42.162;24.754;2023-04-19T05:00:30;5.20;;;2.63;;
64615;SDS011;51027;42.162;24.754;2023-04-19T05:02:55;8.73;;;3.03;;
64615;SDS011;51027;42.162;24.754;2023-04-19T05:05:21;11.18;;;3.10;;
64615;SDS011;51027;42.162;24.754;2023-04-19T05:07:46;7.32;;;2.83;;
64615;SDS011;51027;42.162;24.754;2023-04-19T05:10:12;8.30;;;2.90;;
64615;SDS011;51027;42.162;24.754;2023-04-19T05:12:37;6.32;;;2.45;;
64615;SDS011;51027;42.162;24.754;2023-04-19T05:15:03;8.35;;;2.83;;
64615;SDS011;51027;42.162;24.754;2023-04-19T05:17:28;8.73;;;3.15;;
64615;SDS011;51027;42.162;24.754;2023-04-19T05:19:54;7.90;;;2.65;;
64615;SDS011;51027;42.162;24.754;2023-04-19T05:22:19;9.52;;;2.90;;
64615;SDS011;51027;42.162;24.754;2023-04-19T05:24:45;6.38;;;2.40;;
64615;SDS011;51027;42.162;24.754;2023-04-19T05:27:11;9.18;;;2.80;;
64615;SDS011;51027;42.162;24.754;2023-04-19T05:29:36;13.98;;;6.57;;
64615;SDS011;51027;42.162;24.754;2023-04-19T05:32:02;6.13;;;3.00;;
64615;SDS011;51027;42.162;24.754;2023-04-19T05:34:27;8.75;;;3.47;;
64615;SDS011;51027;42.162;24.754;2023-04-19T05:36:52;8.20;;;3.10;;
64615;SDS011;51027;42.162;24.754;2023-04-19T05:39:18;9.77;;;3.25;;
64615;SDS011;51027;42.162;24.754;2023-04-19T05:41:43;8.43;;;3.17;;
64615;SDS011;51027;42.162;24.754;2023-04-19T05:44:09;6.22;;;2.67;;
64615;SDS011;51027;42.162;24.754;2023-04-19T05:46:34;7.38;;;2.72;;
64615;SDS011;51027;42.162;24.754;2023-04-19T05:49:00;5.95;;;2.70;;
64615;SDS011;51027;42.162;24.754;2023-04-19T05:51:26;8.63;;;2.90;;
64615;SDS011;51027;42.162;24.754;2023-04-19T05:53:52;8.82;;;3.10;;
64615;SDS011;51027;42.162;24.754;2023-04-19T05:56:18;8.35;;;2.88;;
64615;SDS011;51027;42.162;24.754;2023-04-19T05:58:43;9.20;;;2.80;;
64615;SDS011;51027;42.162;24.754;2023-04-19T06:01:09;7.32;;;2.72;;
64615;SDS011;51027;42.162;24.754;2023-04-19T06:03:34;5.68;;;2.60;;
64615;SDS011;51027;42.162;24.754;2023-04-19T06:06:00;8.93;;;2.88;;
64615;SDS011;51027;42.162;24.754;2023-04-19T06:08:25;6.03;;;2.40;;
64615;SDS011;51027;42.162;24.754;2023-04-19T06:10:51;7.68;;;2.78;;
64615;SDS011;51027;42.162;24.754;2023-04-19T06:13:18;8.68;;;2.90;;
64615;SDS011;51027;42.162;24.754;2023-04-19T06:15:43;6.22;;;2.50;;
64615;SDS011;51027;42.162;24.754;2023-04-19T06:18:10;6.70;;;2.80;;
64615;SDS011;51027;42.162;24.754;2023-04-19T06:20:36;8.65;;;3.08;;
64615;SDS011;51027;42.162;24.754;2023-04-19T06:23:01;6.55;;;2.58;;
64615;SDS011;51027;42.162;24.754;2023-04-19T06:25:27;8.55;;;2.88;;
64615;SDS011;51027;42.162;24.754;2023-04-19T06:27:52;9.98;;;2.83;;
64615;SDS011;51027;42.162;24.754;2023-04-19T06:30:18;6.60;;;2.90;;
64615;SDS011;51027;42.162;24.754;2023-04-19T06:32:43;6.95;;;2.67;;
64615;SDS011;51027;42.162;24.754;2023-04-19T06:35:09;7.60;;;2.63;;
64615;SDS011;51027;42.162;24.754;2023-04-19T06:37:35;7.97;;;2.95;;
64615;SDS011;51027;42.162;24.754;2023-04-19T06:40:00;10.65;;;3.13;;
64615;SDS011;51027;42.162;24.754;2023-04-19T06:42:26;7.45;;;2.55;;
64615;SDS011;51027;42.162;24.754;2023-04-19T06:44:51;5.38;;;2.53;;
64615;SDS011;51027;42.162;24.754;2023-04-19T06:47:17;8.13;;;2.85;;
64615;SDS011;51027;42.162;24.754;2023-04-19T06:49:43;5.72;;;2.63;;
64615;SDS011;51027;42.162;24.754;2023-04-19T06:52:08;8.20;;;3.08;;
64615;SDS011;51027;42.162;24.754;2023-04-19T06:54:34;8.75;;;2.67;;
64615;SDS011;51027;42.162;24.754;2023-04-19T06:56:59;11.23;;;3.10;;
64615;SDS011;51027;42.162;24.754;2023-04-19T06:59:26;7.90;;;3.00;;
64615;SDS011;51027;42.162;24.754;2023-04-19T07:01:52;9.23;;;3.08;;
64615;SDS011;51027;42.162;24.754;2023-04-19T07:04:18;10.82;;;3.47;;
64615;SDS011;51027;42.162;24.754;2023-04-19T07:06:46;10.27;;;3.33;;
64615;SDS011;51027;42.162;24.754;2023-04-19T07:09:13;9.25;;;3.00;;
64615;SDS011;51027;42.162;24.754;2023-04-19T07:11:38;11.27;;;2.88;;
64615;SDS011;51027;42.162;24.754;2023-04-19T07:14:03;10.15;;;3.13;;
64615;SDS011;51027;42.162;24.754;2023-04-19T07:16:29;10.63;;;3.17;;
64615;SDS011;51027;42.162;24.754;2023-04-19T07:18:54;6.72;;;2.90;;
64615;SDS011;51027;42.162;24.754;2023-04-19T07:21:21;7.65;;;2.78;;
64615;SDS011;51027;42.162;24.754;2023-04-19T07:23:46;9.73;;;2.80;;
64615;SDS011;51027;42.162;24.754;2023-04-19T07:26:12;7.95;;;2.58;;
64615;SDS011;51027;42.162;24.754;2023-04-19T07:28:39;8.38;;;3.20;;
64615;SDS011;51027;42.162;24.754;2023-04-19T07:31:04;10.70;;;3.40;;
64615;SDS011;51027;42.162;24.754;2023-04-19T07:33:30;8.80;;;3.30;;
64615;SDS011;51027;42.162;24.754;2023-04-19T07:35:56;6.97;;;2.58;;
64615;SDS011;51027;42.162;24.754;2023-04-19T07:38:21;9.52;;;3.40;;
64615;SDS011;51027;42.162;24.754;2023-04-19T07:40:47;10.20;;;3.00;;
64615;SDS011;51027;42.162;24.754;2023-04-19T07:43:12;11.82;;;3.58;;
64615;SDS011;51027;42.162;24.754;2023-04-19T07:45:40;9.40;;;3.33;;
64615;SDS011;51027;42.162;24.754;2023-04-19T07:48:06;9.00;;;3.60;;
64615;SDS011;51027;42.162;24.754;2023-04-19T07:50:31;10.00;;;3.20;;
64615;SDS011;51027;42.162;24.754;2023-04-19T07:52:57;11.73;;;3.63;;
64615;SDS011;51027;42.162;24.754;2023-04-19T07:55:22;8.45;;;3.17;;
64615;SDS011;51027;42.162;24.754;2023-04-19T07:57:48;9.65;;;3.00;;
64615;SDS011;51027;42.162;24.754;2023-04-19T08:00:14;11.02;;;3.88;;
64615;SDS011;51027;42.162;24.754;2023-04-19T08:02:44;9.25;;;3.05;;
64615;SDS011;51027;42.162;24.754;2023-04-19T08:05:10;8.77;;;2.88;;
64615;SDS011;51027;42.162;24.754;2023-04-19T08:07:36;7.03;;;3.00;;
64615;SDS011;51027;42.162;24.754;2023-04-19T08:10:02;7.53;;;2.85;;
64615;SDS011;51027;42.162;24.754;2023-04-19T08:12:29;5.75;;;2.47;;
64615;SDS011;51027;42.162;24.754;2023-04-19T08:14:54;10.65;;;3.13;;
64615;SDS011;51027;42.162;24.754;2023-04-19T08:17:19;7.53;;;2.65;;
64615;SDS011;51027;42.162;24.754;2023-04-19T08:19:46;6.78;;;2.72;;
64615;SDS011;51027;42.162;24.754;2023-04-19T08:22:13;7.65;;;2.90;;
64615;SDS011;51027;42.162;24.754;2023-04-19T08:24:41;9.57;;;3.35;;
64615;SDS011;51027;42.162;24.754;2023-04-19T08:27:07;6.47;;;2.70;;
64615;SDS011;51027;42.162;24.754;2023-04-19T08:29:33;8.93;;;2.80;;
64615;SDS011;51027;42.162;24.754;2023-04-19T08:31:59;6.85;;;2.80;;
64615;SDS011;51027;42.162;24.754;2023-04-19T08:34:27;8.52;;;3.05;;
64615;SDS011;51027;42.162;24.754;2023-04-19T08:36:52;8.00;;;2.75;;
64615;SDS011;51027;42.162;24.754;2023-04-19T08:39:18;6.97;;;2.80;;
64615;SDS011;51027;42.162;24.754;2023-04-19T08:41:43;8.25;;;2.80;;
64615;SDS011;51027;42.162;24.754;2023-04-19T08:44:09;7.57;;;2.80;;
64615;SDS011;51027;42.162;24.754;2023-04-19T08:46:36;8.00;;;2.78;;
64615;SDS011;51027;42.162;24.754;2023-04-19T08:49:03;9.10;;;2.90;;
64615;SDS011;51027;42.162;24.754;2023-04-19T08:51:30;8.20;;;2.85;;
64615;SDS011;51027;42.162;24.754;2023-04-19T08:53:57;6.55;;;2.63;;
64615;SDS011;51027;42.162;24.754;2023-04-19T08:56:24;8.13;;;2.80;;
64615;SDS011;51027;42.162;24.754;2023-04-19T08:58:49;7.50;;;2.90;;
64615;SDS011;51027;42.162;24.754;2023-04-19T09:01:15;6.20;;;2.90;;
64615;SDS011;51027;42.162;24.754;2023-04-19T09:03:44;7.50;;;2.58;;
64615;SDS011;51027;42.162;24.754;2023-04-19T09:06:12;7.20;;;2.78;;
64615;SDS011;51027;42.162;24.754;2023-04-19T09:08:38;7.22;;;2.70;;
64615;SDS011;51027;42.162;24.754;2023-04-19T09:11:05;6.78;;;2.65;;
64615;SDS011;51027;42.162;24.754;2023-04-19T09:13:30;7.22;;;2.90;;
64615;SDS011;51027;42.162;24.754;2023-04-19T09:15:56;7.72;;;2.75;;
64615;SDS011;51027;42.162;24.754;2023-04-19T09:18:24;6.00;;;2.70;;
64615;SDS011;51027;42.162;24.754;2023-04-19T09:20:49;6.15;;;2.83;;
64615;SDS011;51027;42.162;24.754;2023-04-19T09:23:21;7.55;;;2.80;;
64615;SDS011;51027;42.162;24.754;2023-04-19T09:25:56;6.63;;;2.70;;
64615;SDS011;51027;42.162;24.754;2023-04-19T09:28:26;9.15;;;2.90;;
64615;SDS011;51027;42.162;24.754;2023-04-19T09:30:52;5.43;;;2.60;;
64615;SDS011;51027;42.162;24.754;2023-04-19T09:33:35;8.10;;;3.10;;
64615;SDS011;51027;42.162;24.754;2023-04-19T09:36:05;8.65;;;2.95;;
64615;SDS011;51027;42.162;24.754;2023-04-19T09:38:53;7.35;;;3.10;;
64615;SDS011;51027;42.162;24.754;2023-04-19T09:41:18;7.45;;;3.03;;
64615;SDS011;51027;42.162;24.754;2023-04-19T09:43:43;9.05;;;2.92;;
64615;SDS011;51027;42.162;24.754;2023-04-19T09:46:25;7.78;;;3.03;;
64615;SDS011;51027;42.162;24.754;2023-04-19T09:51:39;9.68;;;3.40;;
64615;SDS011;51027;42.162;24.754;2023-04-19T09:54:06;9.80;;;3.17;;
64615;SDS011;51027;42.162;24.754;2023-04-19T09:56:32;14.52;;;5.65;;
64615;SDS011;51027;42.162;24.754;2023-04-19T09:59:01;8.52;;;2.80;;
64615;SDS011;51027;42.162;24.754;2023-04-19T10:01:27;6.38;;;2.58;;
64615;SDS011;51027;42.162;24.754;2023-04-19T10:03:58;7.60;;;2.80;;
64615;SDS011;51027;42.162;24.754;2023-04-19T10:06:24;8.20;;;3.00;;
64615;SDS011;51027;42.162;24.754;2023-04-19T10:08:52;5.95;;;2.70;;
64615;SDS011;51027;42.162;24.754;2023-04-19T10:11:21;6.15;;;2.70;;
64615;SDS011;51027;42.162;24.754;2023-04-19T10:13:52;6.70;;;2.80;;
64615;SDS011;51027;42.162;24.754;2023-04-19T10:16:23;6.20;;;2.55;;
64615;SDS011;51027;42.162;24.754;2023-04-19T10:18:50;7.57;;;2.85;;
64615;SDS011;51027;42.162;24.754;2023-04-19T10:21:17;8.00;;;2.35;;
64615;SDS011;51027;42.162;24.754;2023-04-19T10:23:44;6.63;;;2.70;;
64615;SDS011;51027;42.162;24.754;2023-04-19T10:26:10;5.82;;;2.60;;
64615;SDS011;51027;42.162;24.754;2023-04-19T10:28:36;3.25;;;2.30;;
64615;SDS011;51027;42.162;24.754;2023-04-19T10:31:02;7.20;;;3.17;;
64615;SDS011;51027;42.162;24.754;2023-04-19T10:33:35;6.65;;;2.80;;
64615;SDS011;51027;42.162;24.754;2023-04-19T10:36:02;9.93;;;3.38;;
64615;SDS011;51027;42.162;24.754;2023-04-19T10:41:10;8.77;;;2.90;;
64615;SDS011;51027;42.162;24.754;2023-04-19T10:43:36;6.97;;;2.35;;
64615;SDS011;51027;42.162;24.754;2023-04-19T10:48:33;6.68;;;2.50;;
64615;SDS011;51027;42.162;24.754;2023-04-19T10:51:10;3.53;;;2.15;;
64615;SDS011;51027;42.162;24.754;2023-04-19T10:56:20;7.70;;;2.75;;
64615;SDS011;51027;42.162;24.754;2023-04-19T11:09:31;6.88;;;2.45;;
64615;SDS011;51027;42.162;24.754;2023-04-19T11:12:01;8.77;;;3.33;;
64615;SDS011;51027;42.162;24.754;2023-04-19T11:14:36;6.35;;;2.20;;
64615;SDS011;51027;42.162;24.754;2023-04-19T11:25:04;6.78;;;2.60;;
64615;SDS011;51027;42.162;24.754;2023-04-19T11:27:49;5.32;;;2.53;;
64615;SDS011;51027;42.162;24.754;2023-04-19T11:30:20;5.50;;;2.55;;
64615;SDS011;51027;42.162;24.754;2023-04-19T11:32:52;5.68;;;2.40;;
64615;SDS011;51027;42.162;24.754;2023-04-19T11:35:20;6.30;;;2.83;;
64615;SDS011;51027;42.162;24.754;2023-04-19T11:37:48;9.32;;;2.75;;
64615;SDS011;51027;42.162;24.754;2023-04-19T11:40:15;9.63;;;2.70;;
64615;SDS011;51027;42.162;24.754;2023-04-19T11:42:42;6.57;;;2.33;;
64615;SDS011;51027;42.162;24.754;2023-04-19T11:45:08;7.72;;;2.40;;
64615;SDS011;51027;42.162;24.754;2023-04-19T11:47:34;7.07;;;2.70;;
64615;SDS011;51027;42.162;24.754;2023-04-19T11:50:29;7.53;;;2.67;;
64615;SDS011;51027;42.162;24.754;2023-04-19T11:52:54;6.25;;;2.60;;
64615;SDS011;51027;42.162;24.754;2023-04-19T11:55:20;5.03;;;2.35;;
64615;SDS011;51027;42.162;24.754;2023-04-19T11:57:46;5.63;;;2.55;;
64615;SDS011;51027;42.162;24.754;2023-04-19T12:00:12;8.98;;;3.20;;
64615;SDS011;51027;42.162;24.754;2023-04-19T12:02:39;8.45;;;2.80;;
64615;SDS011;51027;42.162;24.754;2023-04-19T12:05:07;10.82;;;3.10;;
64615;SDS011;51027;42.162;24.754;2023-04-19T12:07:34;9.43;;;3.15;;
64615;SDS011;51027;42.162;24.754;2023-04-19T12:10:06;6.63;;;2.60;;
64615;SDS011;51027;42.162;24.754;2023-04-19T12:12:34;9.20;;;3.15;;
64615;SDS011;51027;42.162;24.754;2023-04-19T12:15:00;9.82;;;2.97;;
64615;SDS011;51027;42.162;24.754;2023-04-19T12:17:25;7.05;;;1.90;;
64615;SDS011;51027;42.162;24.754;2023-04-19T12:19:51;6.93;;;2.20;;
64615;SDS011;51027;42.162;24.754;2023-04-19T12:22:17;5.50;;;2.10;;
64615;SDS011;51027;42.162;24.754;2023-04-19T12:24:51;8.57;;;2.70;;
64615;SDS011;51027;42.162;24.754;2023-04-19T12:27:20;8.52;;;2.58;;
64615;SDS011;51027;42.162;24.754;2023-04-19T12:29:45;9.85;;;2.63;;
64615;SDS011;51027;42.162;24.754;2023-04-19T12:32:10;4.95;;;2.40;;
64615;SDS011;51027;42.162;24.754;2023-04-19T12:34:36;10.27;;;2.75;;
64615;SDS011;51027;42.162;24.754;2023-04-19T12:37:02;12.30;;;3.40;;
64615;SDS011;51027;42.162;24.754;2023-04-19T12:39:28;13.57;;;3.78;;
64615;SDS011;51027;42.162;24.754;2023-04-19T12:41:55;10.63;;;3.22;;
64615;SDS011;51027;42.162;24.754;2023-04-19T12:44:20;12.48;;;3.63;;
64615;SDS011;51027;42.162;24.754;2023-04-19T12:46:46;15.25;;;3.80;;
64615;SDS011;51027;42.162;24.754;2023-04-19T12:49:12;11.98;;;4.35;;
64615;SDS011;51027;42.162;24.754;2023-04-19T12:51:37;10.63;;;3.30;;
64615;SDS011;51027;42.162;24.754;2023-04-19T12:54:03;10.35;;;3.50;;
64615;SDS011;51027;42.162;24.754;2023-04-19T12:56:28;9.80;;;3.60;;
64615;SDS011;51027;42.162;24.754;2023-04-19T12:58:53;8.52;;;3.08;;
64615;SDS011;51027;42.162;24.754;2023-04-19T13:01:19;9.77;;;3.83;;
64615;SDS011;51027;42.162;24.754;2023-04-19T13:03:44;11.07;;;3.30;;
64615;SDS011;51027;42.162;24.754;2023-04-19T13:06:10;9.98;;;3.05;;
64615;SDS011;51027;42.162;24.754;2023-04-19T13:08:38;8.80;;;2.75;;
64615;SDS011;51027;42.162;24.754;2023-04-19T13:11:04;8.23;;;2.83;;
64615;SDS011;51027;42.162;24.754;2023-04-19T13:13:29;9.80;;;2.88;;
64615;SDS011;51027;42.162;24.754;2023-04-19T13:15:55;6.80;;;2.42;;
64615;SDS011;51027;42.162;24.754;2023-04-19T13:18:20;9.00;;;2.40;;
64615;SDS011;51027;42.162;24.754;2023-04-19T13:20:46;10.77;;;2.95;;
64615;SDS011;51027;42.162;24.754;2023-04-19T13:23:12;5.60;;;2.63;;
64615;SDS011;51027;42.162;24.754;2023-04-19T13:25:37;4.63;;;2.13;;
64615;SDS011;51027;42.162;24.754;2023-04-19T13:28:03;6.00;;;2.92;;
64615;SDS011;51027;42.162;24.754;2023-04-19T13:30:28;9.50;;;3.38;;
64615;SDS011;51027;42.162;24.754;2023-04-19T13:32:53;5.22;;;2.30;;
64615;SDS011;51027;42.162;24.754;2023-04-19T13:35:19;12.07;;;3.15;;
64615;SDS011;51027;42.162;24.754;2023-04-19T13:37:45;11.80;;;3.85;;
64615;SDS011;51027;42.162;24.754;2023-04-19T13:40:11;12.95;;;5.10;;
64615;SDS011;51027;42.162;24.754;2023-04-19T13:42:37;11.88;;;4.38;;
64615;SDS011;51027;42.162;24.754;2023-04-19T13:45:02;13.32;;;4.15;;
64615;SDS011;51027;42.162;24.754;2023-04-19T13:47:28;7.68;;;2.88;;
64615;SDS011;51027;42.162;24.754;2023-04-19T13:49:53;11.48;;;4.18;;
64615;SDS011;51027;42.162;24.754;2023-04-19T13:52:19;12.68;;;3.72;;
64615;SDS011;51027;42.162;24.754;2023-04-19T13:54:45;7.53;;;3.10;;
64615;SDS011;51027;42.162;24.754;2023-04-19T13:57:10;8.70;;;2.95;;
64615;SDS011;51027;42.162;24.754;2023-04-19T13:59:36;6.03;;;2.58;;
64615;SDS011;51027;42.162;24.754;2023-04-19T14:02:02;6.95;;;3.05;;
64615;SDS011;51027;42.162;24.754;2023-04-19T14:04:28;7.00;;;2.70;;
64615;SDS011;51027;42.162;24.754;2023-04-19T14:06:54;10.15;;;3.50;;
64615;SDS011;51027;42.162;24.754;2023-04-19T14:09:19;8.35;;;2.90;;
64615;SDS011;51027;42.162;24.754;2023-04-19T14:11:44;10.20;;;3.10;;
64615;SDS011;51027;42.162;24.754;2023-04-19T14:14:11;8.20;;;3.10;;
64615;SDS011;51027;42.162;24.754;2023-04-19T14:16:36;9.35;;;3.15;;
64615;SDS011;51027;42.162;24.754;2023-04-19T14:19:02;11.95;;;3.40;;
64615;SDS011;51027;42.162;24.754;2023-04-19T14:21:28;8.93;;;3.25;;
64615;SDS011;51027;42.162;24.754;2023-04-19T14:23:54;8.88;;;3.33;;
64615;SDS011;51027;42.162;24.754;2023-04-19T14:26:19;9.43;;;3.30;;
64615;SDS011;51027;42.162;24.754;2023-04-19T14:28:45;6.95;;;3.15;;
64615;SDS011;51027;42.162;24.754;2023-04-19T14:31:10;7.10;;;3.08;;
64615;SDS011;51027;42.162;24.754;2023-04-19T14:33:35;10.85;;;3.45;;
64615;SDS011;51027;42.162;24.754;2023-04-19T14:36:01;8.57;;;3.45;;
64615;SDS011;51027;42.162;24.754;2023-04-19T14:38:26;8.73;;;2.90;;
64615;SDS011;51027;42.162;24.754;2023-04-19T14:40:52;9.85;;;3.28;;
64615;SDS011;51027;42.162;24.754;2023-04-19T14:43:17;9.43;;;3.25;;
64615;SDS011;51027;42.162;24.754;2023-04-19T14:45:43;8.73;;;3.00;;
64615;SDS011;51027;42.162;24.754;2023-04-19T14:48:08;11.98;;;4.03;;
64615;SDS011;51027;42.162;24.754;2023-04-19T14:50:34;14.55;;;5.22;;
64615;SDS011;51027;42.162;24.754;2023-04-19T14:52:59;14.73;;;4.57;;
64615;SDS011;51027;42.162;24.754;2023-04-19T14:55:24;14.70;;;4.45;;